Time;durP1;ratioP1;P1;durP2;ratioP2;P2;SDS_P1;SDS_P2;PMS_P1;PMS_P2;Temp;Humidity;BMP_temperature;BMP_pressure;BME280_temperature;BME280_humidity;BME280_pressure;Samples;Min_cycle;Max_cycle;Signal;HPM_P1;HPM_P2
2021/08/18 00:00:43;;;;;;;3.80;1.77;;;537.70;1408.00;;;;;;5092963;28;20112;-76
2021/08/18 00:03:10;;;;;;;7.32;1.75;;;537.70;1408.00;;;;;;5094195;28;20403;-75
2021/08/18 00:05:36;;;;;;;3.72;1.50;;;537.90;1408.00;;;;;;5092803;28;20055;-76
2021/08/18 00:08:03;;;;;;;4.85;2.10;;;537.80;1408.00;;;;;;5091831;28;20020;-75
2021/08/18 00:10:30;;;;;;;6.38;2.05;;;537.90;1408.00;;;;;;5094113;28;20024;-75
2021/08/18 00:12:56;;;;;;;4.00;1.90;;;537.90;1408.00;;;;;;5093752;28;20048;-75
2021/08/18 00:15:24;;;;;;;5.30;1.77;;;537.90;1408.00;;;;;;5092716;28;20039;-75
2021/08/18 00:17:50;;;;;;;3.55;1.70;;;538.00;1408.00;;;;;;5092632;28;20035;-75
2021/08/18 00:20:16;;;;;;;3.92;2.10;;;538.00;1408.00;;;;;;5093895;28;20112;-74
2021/08/18 00:22:43;;;;;;;10.50;2.13;;;538.10;1408.00;;;;;;5093885;28;20020;-77
2021/08/18 00:25:09;;;;;;;5.28;1.80;;;538.00;1408.00;;;;;;5094077;28;20032;-76
2021/08/18 00:27:35;;;;;;;4.22;1.88;;;538.00;1408.00;;;;;;5093802;28;20069;-76
2021/08/18 00:30:03;;;;;;;3.22;1.77;;;537.90;1408.00;;;;;;5092500;28;20032;-76
2021/08/18 00:32:29;;;;;;;4.88;2.05;;;537.90;1433.60;;;;;;5093837;28;20027;-76
2021/08/18 00:34:55;;;;;;;7.40;2.38;;;537.90;1433.60;;;;;;5093706;28;20047;-77
2021/08/18 00:37:22;;;;;;;5.43;2.63;;;537.90;1433.60;;;;;;5093673;28;20032;-76
2021/08/18 00:39:47;;;;;;;5.30;1.92;;;537.90;1433.60;;;;;;5093876;28;20461;-76
2021/08/18 00:42:15;;;;;;;6.30;2.20;;;537.70;1433.60;;;;;;5092374;28;20028;-76
2021/08/18 00:44:41;;;;;;;3.35;1.80;;;537.70;1433.60;;;;;;5092300;28;20119;-76
2021/08/18 00:47:07;;;;;;;4.55;2.08;;;537.90;1433.60;;;;;;5092282;28;20449;-76
2021/08/18 00:49:33;;;;;;;4.53;1.98;;;537.90;1433.60;;;;;;5092267;28;20036;-77
2021/08/18 00:52:00;;;;;;;4.80;2.00;;;537.90;1433.60;;;;;;5093486;28;20020;-77
2021/08/18 00:54:26;;;;;;;14.30;2.38;;;537.90;1433.60;;;;;;5092225;28;20024;-76
2021/08/18 00:56:53;;;;;;;8.30;2.28;;;537.90;1433.60;;;;;;5093455;28;20039;-76
2021/08/18 00:59:20;;;;;;;4.20;1.83;;;538.00;1433.60;;;;;;5093432;28;20027;-76
2021/08/18 01:01:46;;;;;;;3.10;2.00;;;538.00;1408.00;;;;;;5092142;28;20035;-76
2021/08/18 01:04:12;;;;;;;2.95;1.73;;;538.00;1408.00;;;;;;5093363;28;20017;-77
2021/08/18 01:06:41;;;;;;;6.68;2.30;;;537.90;1408.00;;;;;;5093420;28;20039;-76
2021/08/18 01:09:08;;;;;;;5.00;1.60;;;538.00;1408.00;;;;;;5092124;28;20103;-76
2021/08/18 01:11:38;;;;;;;4.38;1.80;;;537.90;1408.00;;;;;;5093313;28;20431;-76
2021/08/18 01:14:04;;;;;;;4.70;1.77;;;538.00;1408.00;;;;;;5093156;28;20497;-74
2021/08/18 01:16:46;;;;;;;3.75;1.90;;;538.00;1408.00;;;;;;5093273;28;20500;-77
2021/08/18 01:19:19;;;;;;;5.80;1.90;;;537.90;1408.00;;;;;;5092741;28;20032;-76
2021/08/18 01:21:47;;;;;;;3.58;2.00;;;537.90;1408.00;;;;;;5097247;28;20027;-75
2021/08/18 01:24:13;;;;;;;5.93;2.10;;;537.90;1408.00;;;;;;5095945;28;20101;-76
2021/08/18 01:26:40;;;;;;;3.60;2.00;;;537.80;1408.00;;;;;;5097477;28;20032;-75
2021/08/18 01:29:06;;;;;;;3.92;1.73;;;537.70;1408.00;;;;;;5097285;28;20058;-75
2021/08/18 01:31:33;;;;;;;3.42;2.00;;;537.70;1408.00;;;;;;5097404;28;20436;-76
2021/08/18 01:34:01;;;;;;;4.05;1.90;;;537.70;1408.00;;;;;;5097024;28;20016;-75
2021/08/18 01:36:28;;;;;;;4.38;2.08;;;537.70;1408.00;;;;;;5096967;28;20111;-74
2021/08/18 01:38:59;;;;;;;4.05;1.67;;;537.80;1408.00;;;;;;5096947;28;20020;-75
2021/08/18 01:41:24;;;;;;;2.92;1.52;;;537.90;1382.40;;;;;;5096906;28;20107;-75
2021/08/18 01:43:50;;;;;;;4.85;1.85;;;537.70;1408.00;;;;;;5095636;28;20107;-75
2021/08/18 01:46:16;;;;;;;6.65;1.95;;;537.70;1382.40;;;;;;5095381;28;20067;-75
2021/08/18 01:48:42;;;;;;;3.95;1.50;;;537.70;1382.40;;;;;;5096758;28;20027;-75
2021/08/18 01:51:08;;;;;;;3.58;1.63;;;537.70;1382.40;;;;;;5095315;28;20384;-75
2021/08/18 01:53:40;;;;;;;4.20;1.95;;;537.80;1382.40;;;;;;5096926;28;20024;-75
2021/08/18 01:56:06;;;;;;;4.20;1.60;;;537.70;1382.40;;;;;;5095351;28;20433;-77
2021/08/18 01:58:34;;;;;;;4.10;1.52;;;537.60;1382.40;;;;;;5096537;28;20024;-75
2021/08/18 02:01:04;;;;;;;2.50;1.40;;;537.70;1382.40;;;;;;5096497;28;20491;-75
2021/08/18 02:03:30;;;;;;;3.88;1.80;;;537.60;1408.00;;;;;;5096477;28;20024;-76
2021/08/18 02:05:55;;;;;;;5.82;1.60;;;537.60;1408.00;;;;;;5096370;28;20519;-75
2021/08/18 02:08:21;;;;;;;4.45;2.05;;;512.80;1382.40;;;;;;5096987;28;20048;-75
2021/08/18 02:10:47;;;;;;;7.22;1.55;;;512.70;1408.00;;;;;;5096337;28;20024;-76
2021/08/18 02:13:14;;;;;;;9.43;1.95;;;512.80;1382.40;;;;;;5094865;28;20109;-75
2021/08/18 02:15:41;;;;;;;4.47;1.98;;;512.60;1408.00;;;;;;5096183;28;20024;-76
2021/08/18 02:18:08;;;;;;;3.38;1.85;;;512.70;1408.00;;;;;;5094925;28;20028;-75
2021/08/18 02:20:37;;;;;;;3.30;1.58;;;512.80;1382.40;;;;;;5096125;28;20028;-76
2021/08/18 02:23:04;;;;;;;5.30;2.05;;;512.90;1382.40;;;;;;5094817;28;20365;-76
2021/08/18 02:25:31;;;;;;;5.75;2.25;;;512.70;1408.00;;;;;;5094680;28;20043;-76
2021/08/18 02:27:57;;;;;;;4.28;1.90;;;512.70;1408.00;;;;;;5096013;28;20062;-75
2021/08/18 02:30:26;;;;;;;3.67;1.67;;;512.80;1382.40;;;;;;5095424;28;20048;-74
2021/08/18 02:32:53;;;;;;;4.45;2.42;;;512.70;1382.40;;;;;;5095408;28;20539;-75
2021/08/18 02:35:19;;;;;;;3.03;1.85;;;512.60;1408.00;;;;;;5095940;28;20111;-75
2021/08/18 02:37:47;;;;;;;5.10;2.17;;;512.70;1408.00;;;;;;5095858;28;20028;-76
2021/08/18 02:40:18;;;;;;;6.53;1.88;;;512.90;1382.40;;;;;;5094516;28;20130;-76
2021/08/18 02:42:44;;;;;;;3.83;2.13;;;512.90;1382.40;;;;;;5094457;28;20426;-75
2021/08/18 02:45:11;;;;;;;4.88;1.80;;;512.70;1408.00;;;;;;5095621;28;20358;-76
2021/08/18 02:47:37;;;;;;;6.32;2.13;;;512.60;1408.00;;;;;;5095611;28;20099;-76
2021/08/18 02:50:06;;;;;;;3.28;1.98;;;512.60;1408.00;;;;;;5094322;28;20111;-75
2021/08/18 02:52:32;;;;;;;6.57;2.08;;;512.60;1408.00;;;;;;5095543;28;20468;-76
2021/08/18 02:54:58;;;;;;;3.88;1.90;;;512.60;1408.00;;;;;;5095452;28;20447;-75
2021/08/18 02:57:24;;;;;;;8.82;2.13;;;;;;;;;;5095573;28;20094;-75
2021/08/18 02:59:52;;;;;;;3.50;2.00;;;512.50;1408.00;;;;;;5094116;28;20077;-76
2021/08/18 03:02:19;;;;;;;6.97;2.40;;;512.10;1408.00;;;;;;5094058;28;20031;-76
2021/08/18 03:04:45;;;;;;;4.38;1.77;;;512.40;1408.00;;;;;;5095224;28;20024;-76
2021/08/18 03:07:11;;;;;;;4.45;2.05;;;512.50;1408.00;;;;;;5095290;28;20024;-76
2021/08/18 03:09:37;;;;;;;5.50;2.30;;;512.20;1408.00;;;;;;5095164;28;20028;-75
2021/08/18 03:12:03;;;;;;;3.15;1.98;;;512.40;1408.00;;;;;;5093887;28;20032;-75
2021/08/18 03:14:29;;;;;;;4.10;2.20;;;512.40;1382.40;;;;;;5095059;28;20040;-75
2021/08/18 03:16:55;;;;;;;5.47;2.38;;;512.60;1382.40;;;;;;5095125;28;20069;-75
2021/08/18 03:19:21;;;;;;;4.28;2.47;;;512.60;1382.40;;;;;;5095165;28;20016;-75
2021/08/18 03:21:47;;;;;;;4.05;2.20;;;512.60;1382.40;;;;;;5095006;28;20032;-75
2021/08/18 03:24:13;;;;;;;4.32;2.20;;;512.60;1356.80;;;;;;5094891;28;20016;-75
2021/08/18 03:26:40;;;;;;;4.50;2.70;;;512.70;1356.80;;;;;;5094955;28;20020;-75
2021/08/18 03:29:06;;;;;;;5.57;2.08;;;512.70;1356.80;;;;;;5094838;28;20031;-75
2021/08/18 03:31:31;;;;;;;4.55;1.92;;;512.50;1382.40;;;;;;5093527;28;20031;-76
2021/08/18 03:33:57;;;;;;;5.72;2.10;;;512.60;1382.40;;;;;;5093407;28;20017;-75
2021/08/18 03:36:23;;;;;;;6.90;2.15;;;512.60;1382.40;;;;;;5094680;28;20028;-75
2021/08/18 03:38:49;;;;;;;4.28;2.00;;;512.60;1382.40;;;;;;5093363;28;20472;-75
2021/08/18 03:41:15;;;;;;;5.28;2.40;;;512.70;1382.40;;;;;;5094851;28;20028;-76
2021/08/18 03:43:41;;;;;;;6.20;2.40;;;512.60;1356.80;;;;;;5094683;28;20028;-74
2021/08/18 03:46:08;;;;;;;7.35;2.35;;;512.70;1356.80;;;;;;5093139;28;20059;-76
2021/08/18 03:48:34;;;;;;;4.28;1.98;;;512.80;1356.80;;;;;;5094448;28;20504;-75
2021/08/18 03:51:00;;;;;;;5.63;1.98;;;512.60;1356.80;;;;;;5093119;28;20123;-75
2021/08/18 03:53:26;;;;;;;4.78;2.00;;;512.50;1382.40;;;;;;5093130;28;20476;-75
2021/08/18 03:55:52;;;;;;;4.68;1.70;;;512.40;1382.40;;;;;;5093108;28;20052;-76
2021/08/18 03:58:18;;;;;;;5.18;1.92;;;512.50;1382.40;;;;;;5094290;28;20082;-76
2021/08/18 04:00:44;;;;;;;4.03;2.00;;;512.60;1382.40;;;;;;5094197;28;20020;-75
2021/08/18 04:03:10;;;;;;;3.92;2.00;;;512.60;1356.80;;;;;;5094292;28;20028;-77
2021/08/18 04:05:36;;;;;;;11.15;2.47;;;512.60;1356.80;;;;;;5094061;28;20446;-74
2021/08/18 04:08:02;;;;;;;3.42;1.80;;;512.70;1356.80;;;;;;5094245;28;20024;-77
2021/08/18 04:10:28;;;;;;;3.42;1.63;;;512.70;1382.40;;;;;;5094072;28;20031;-76
2021/08/18 04:12:59;;;;;;;5.03;1.77;;;512.70;1356.80;;;;;;5094073;28;20508;-75
2021/08/18 04:15:27;;;;;;;6.35;2.00;;;512.70;1356.80;;;;;;5094024;28;20106;-75
2021/08/18 04:17:53;;;;;;;3.35;1.80;;;512.60;1356.80;;;;;;5093910;28;20353;-75
2021/08/18 04:20:20;;;;;;;4.20;1.92;;;512.60;1382.40;;;;;;5092652;28;20419;-75
2021/08/18 04:22:46;;;;;;;6.55;2.10;;;512.60;1356.80;;;;;;5093908;28;20024;-76
2021/08/18 04:25:14;;;;;;;3.67;2.05;;;512.60;1382.40;;;;;;5093806;28;20389;-75
2021/08/18 04:27:41;;;;;;;6.00;2.58;;;512.60;1356.80;;;;;;5093813;28;20023;-76
2021/08/18 04:30:09;;;;;;;4.93;2.78;;;512.60;1356.80;;;;;;5093774;28;20024;-76
2021/08/18 04:32:35;;;;;;;7.57;2.45;;;512.60;1382.40;;;;;;5093705;28;20024;-76
2021/08/18 04:35:01;;;;;;;7.10;2.55;;;512.60;1382.40;;;;;;5092434;28;20043;-76
2021/08/18 04:37:27;;;;;;;5.35;2.38;;;512.60;1382.40;;;;;;5093721;28;20020;-75
2021/08/18 04:39:53;;;;;;;3.95;1.83;;;512.50;1382.40;;;;;;5092331;28;20145;-76
2021/08/18 04:42:19;;;;;;;4.80;2.20;;;512.50;1382.40;;;;;;5093605;28;20059;-76
2021/08/18 04:44:45;;;;;;;4.50;1.95;;;512.60;1382.40;;;;;;5092323;28;20387;-76
2021/08/18 04:47:11;;;;;;;3.67;1.88;;;512.50;1382.40;;;;;;5093768;28;20024;-76
2021/08/18 04:49:37;;;;;;;4.53;2.40;;;512.40;1408.00;;;;;;5093569;28;20027;-76
2021/08/18 04:52:03;;;;;;;4.38;1.70;;;512.40;1408.00;;;;;;5092346;28;20059;-76
2021/08/18 04:54:29;;;;;;;4.05;2.00;;;512.40;1408.00;;;;;;5094781;28;20435;-75
2021/08/18 04:56:54;;;;;;;5.20;2.17;;;512.50;1408.00;;;;;;5097746;28;20030;-74
2021/08/18 04:59:20;;;;;;;8.48;2.15;;;512.30;1408.00;;;;;;5097994;28;20069;-76
2021/08/18 05:01:46;;;;;;;6.47;1.98;;;512.40;1408.00;;;;;;5097636;28;20058;-76
2021/08/18 05:04:12;;;;;;;5.63;2.42;;;512.30;1408.00;;;;;;5096294;28;20024;-76
2021/08/18 05:06:38;;;;;;;6.47;2.35;;;512.40;1408.00;;;;;;5097625;28;20031;-76
2021/08/18 05:09:04;;;;;;;6.68;2.33;;;512.30;1433.60;;;;;;5096252;28;20016;-76
2021/08/18 05:11:30;;;;;;;4.32;1.98;;;512.00;1459.20;;;;;;5097482;28;20153;-75
2021/08/18 05:13:56;;;;;;;4.75;2.15;;;512.20;1433.60;;;;;;5097455;28;20058;-76
2021/08/18 05:16:22;;;;;;;6.43;2.67;;;512.20;1433.60;;;;;;5097406;28;20024;-74
2021/08/18 05:18:48;;;;;;;7.47;2.67;;;512.20;1433.60;;;;;;5097292;28;20031;-75
2021/08/18 05:21:13;;;;;;;8.40;2.45;;;512.20;1433.60;;;;;;5096044;28;20054;-76
2021/08/18 05:23:39;;;;;;;4.10;2.35;;;512.20;1433.60;;;;;;5097249;28;20027;-75
2021/08/18 05:26:05;;;;;;;4.70;2.10;;;512.10;1459.20;;;;;;5095836;28;20042;-75
2021/08/18 05:28:31;;;;;;;7.47;2.35;;;512.10;1459.20;;;;;;5097144;28;20028;-75
2021/08/18 05:30:57;;;;;;;9.10;2.28;;;512.20;1433.60;;;;;;5097143;28;20028;-74
2021/08/18 05:33:23;;;;;;;5.32;2.30;;;512.10;1459.20;;;;;;5097067;28;20029;-76
2021/08/18 05:35:49;;;;;;;4.28;2.28;;;512.10;1459.20;;;;;;5097242;28;20485;-75
2021/08/18 05:38:15;;;;;;;5.95;2.40;;;512.20;1433.60;;;;;;5095722;28;20092;-76
2021/08/18 05:40:41;;;;;;;5.57;2.42;;;512.40;1433.60;;;;;;5096950;28;20043;-75
2021/08/18 05:43:07;;;;;;;3.60;2.15;;;512.40;1433.60;;;;;;5096943;28;20024;-75
2021/08/18 05:45:33;;;;;;;3.95;2.10;;;512.30;1433.60;;;;;;5095578;28;20521;-77
2021/08/18 05:47:58;;;;;;;4.35;2.22;;;512.40;1433.60;;;;;;5097104;28;20020;-75
2021/08/18 05:50:24;;;;;;;6.85;2.55;;;512.30;1433.60;;;;;;5096775;28;20365;-75
2021/08/18 05:52:50;;;;;;;7.45;2.45;;;512.30;1433.60;;;;;;5096790;28;20021;-75
2021/08/18 05:55:16;;;;;;;7.97;2.88;;;512.50;1433.60;;;;;;5096695;28;20490;-76
2021/08/18 05:57:42;;;;;;;5.25;2.72;;;512.40;1433.60;;;;;;5096701;28;20126;-76
2021/08/18 06:00:09;;;;;;;7.35;2.80;;;512.60;1433.60;;;;;;5096557;28;20024;-75
2021/08/18 06:02:35;;;;;;;4.13;2.40;;;512.50;1433.60;;;;;;5096534;28;20016;-75
2021/08/18 06:05:01;;;;;;;6.07;2.80;;;512.60;1408.00;;;;;;5095107;28;20050;-75
2021/08/18 06:07:27;;;;;;;5.22;2.42;;;512.60;1408.00;;;;;;5096375;28;20020;-76
2021/08/18 06:09:53;;;;;;;7.15;2.53;;;512.70;1408.00;;;;;;5096387;28;20081;-76
2021/08/18 06:12:19;;;;;;;8.57;2.60;;;512.80;1382.40;;;;;;5094814;28;20023;-76
2021/08/18 06:14:45;;;;;;;7.15;2.40;;;512.80;1408.00;;;;;;5096236;28;20028;-76
2021/08/18 06:17:11;;;;;;;4.22;2.38;;;512.80;1382.40;;;;;;5096264;28;20081;-75
2021/08/18 06:19:36;;;;;;;8.40;2.42;;;512.90;1382.40;;;;;;5094877;28;20056;-76
2021/08/18 06:22:04;;;;;;;7.03;2.28;;;512.90;1382.40;;;;;;5096197;28;20031;-76
2021/08/18 06:24:40;;;;;;;5.88;2.50;;;537.60;1408.00;;;;;;5096001;28;20091;-76
2021/08/18 06:27:08;;;;;;;7.22;1.90;;;512.90;1382.40;;;;;;5096363;28;20036;-75
2021/08/18 06:29:34;;;;;;;4.45;2.10;;;512.90;1382.40;;;;;;5095991;28;20495;-76
2021/08/18 06:32:02;;;;;;;4.43;2.08;;;537.60;1408.00;;;;;;5095990;28;20028;-76
2021/08/18 06:34:28;;;;;;;5.18;1.98;;;537.60;1382.40;;;;;;5095922;28;20051;-78
2021/08/18 06:36:54;;;;;;;5.30;2.40;;;537.80;1382.40;;;;;;5095879;28;20051;-76
2021/08/18 06:39:20;;;;;;;9.00;2.63;;;537.80;1382.40;;;;;;5095819;28;20016;-76
2021/08/18 06:41:46;;;;;;;5.43;2.28;;;537.80;1356.80;;;;;;5095761;28;20054;-76
2021/08/18 06:44:12;;;;;;;10.55;2.30;;;537.90;1331.20;;;;;;5095646;28;20477;-75
2021/08/18 06:46:38;;;;;;;6.72;2.38;;;537.90;1331.20;;;;;;5095693;28;20024;-74
2021/08/18 06:49:03;;;;;;;8.52;2.10;;;537.80;1331.20;;;;;;5095604;28;20376;-74
2021/08/18 06:51:29;;;;;;;5.50;2.20;;;537.90;1331.20;;;;;;5095616;28;20077;-76
2021/08/18 06:53:55;;;;;;;19.05;3.13;;;538.00;1331.20;;;;;;5095778;28;20465;-76
2021/08/18 06:56:21;;;;;;;5.70;2.30;;;538.00;1331.20;;;;;;5094184;28;20028;-74
2021/08/18 06:58:47;;;;;;;5.72;2.05;;;538.10;1331.20;;;;;;5094165;28;20027;-76
2021/08/18 07:01:13;;;;;;;5.57;2.10;;;538.20;1331.20;;;;;;5095646;28;20035;-77
2021/08/18 07:03:39;;;;;;;9.73;2.63;;;538.30;1305.60;;;;;;5095701;28;20376;-75
2021/08/18 07:06:05;;;;;;;9.15;2.47;;;538.30;1305.60;;;;;;5095227;28;20032;-74
2021/08/18 07:08:30;;;;;;;6.97;2.35;;;538.50;1280.00;;;;;;5095206;28;20025;-75
2021/08/18 07:10:56;;;;;;;4.57;2.10;;;563.20;1280.00;;;;;;5095242;28;20062;-75
2021/08/18 07:13:22;;;;;;;15.75;3.10;;;563.30;1280.00;;;;;;5093680;28;20434;-74
2021/08/18 07:15:48;;;;;;;11.65;2.47;;;563.60;1254.40;;;;;;5095399;28;20051;-75
2021/08/18 07:18:14;;;;;;;10.35;2.33;;;563.70;1254.40;;;;;;5094557;28;20062;-75
2021/08/18 07:20:40;;;;;;;6.30;2.17;;;563.70;1203.20;;;;;;5095078;28;20020;-75
2021/08/18 07:23:06;;;;;;;6.97;1.90;;;563.70;1203.20;;;;;;5093663;28;20059;-76
2021/08/18 07:25:32;;;;;;;5.00;2.33;;;563.70;1228.80;;;;;;5094802;28;20028;-73
2021/08/18 07:27:58;;;;;;;7.10;2.15;;;563.70;1228.80;;;;;;5095170;28;20479;-74
2021/08/18 07:30:24;;;;;;;6.93;1.65;;;563.90;1203.20;;;;;;5093562;28;20127;-74
2021/08/18 07:32:50;;;;;;;4.68;1.90;;;563.90;1177.60;;;;;;5094734;28;20103;-75
2021/08/18 07:35:16;;;;;;;6.55;1.88;;;563.90;1177.60;;;;;;5093419;28;20543;-75
2021/08/18 07:37:42;;;;;;;8.85;2.75;;;563.90;1152.00;;;;;;5094670;28;20050;-78
2021/08/18 07:40:09;;;;;;;3.20;1.60;;;564.00;1152.00;;;;;;5093352;28;20039;-74
2021/08/18 07:42:35;;;;;;;5.22;2.28;;;564.10;1126.40;;;;;;5093363;28;20026;-75
2021/08/18 07:45:02;;;;;;;8.40;1.98;;;564.10;1126.40;;;;;;5094454;28;20024;-76
2021/08/18 07:47:28;;;;;;;6.88;2.08;;;588.80;1100.80;;;;;;5094506;28;20103;-75
2021/08/18 07:49:54;;;;;;;9.18;2.63;;;588.80;1100.80;;;;;;5094586;28;20058;-75
2021/08/18 07:52:20;;;;;;;14.00;2.22;;;588.80;1075.20;;;;;;5093158;28;20020;-76
2021/08/18 07:54:46;;;;;;;4.93;1.90;;;588.80;1100.80;;;;;;5094655;28;20028;-76
2021/08/18 07:57:13;;;;;;;8.43;2.30;;;588.80;1100.80;;;;;;5094655;28;20022;-76
2021/08/18 07:59:39;;;;;;;8.07;2.25;;;588.90;1126.40;;;;;;5093053;28;20024;-75
2021/08/18 08:02:05;;;;;;;5.45;1.95;;;589.00;1100.80;;;;;;5094322;28;20024;-76
2021/08/18 08:04:31;;;;;;;5.57;1.88;;;589.00;1100.80;;;;;;5094162;28;20103;-76
2021/08/18 08:06:58;;;;;;;4.45;1.80;;;589.10;1126.40;;;;;;5094221;28;20027;-77
2021/08/18 08:09:24;;;;;;;3.78;1.90;;;589.30;1100.80;;;;;;5094144;28;20358;-76
2021/08/18 08:11:50;;;;;;;9.25;1.98;;;589.30;1075.20;;;;;;5094134;28;20094;-75
2021/08/18 08:14:16;;;;;;;6.18;1.60;;;589.20;1075.20;;;;;;5092599;28;20056;-76
2021/08/18 08:16:42;;;;;;;7.00;1.80;;;589.20;1075.20;;;;;;5092811;28;20121;-75
2021/08/18 08:19:08;;;;;;;11.48;2.05;;;589.10;1100.80;;;;;;5092763;28;20030;-75
2021/08/18 08:21:34;;;;;;;4.80;2.10;;;589.10;1100.80;;;;;;5093956;28;20024;-75
2021/08/18 08:24:00;;;;;;;3.85;1.98;;;589.10;1075.20;;;;;;5093953;28;20062;-76
2021/08/18 08:26:26;;;;;;;5.47;1.80;;;589.00;1100.80;;;;;;5094140;28;20039;-76
2021/08/18 08:28:52;;;;;;;4.25;1.95;;;589.00;1100.80;;;;;;5092923;28;20013;-75
2021/08/18 08:31:18;;;;;;;7.18;2.53;;;589.00;1100.80;;;;;;5092540;28;20173;-76
2021/08/18 08:33:45;;;;;;;5.03;2.00;;;589.00;1100.80;;;;;;5094038;28;20021;-75
2021/08/18 08:36:11;;;;;;;4.07;1.65;;;589.00;1100.80;;;;;;5092478;28;20023;-75
2021/08/18 08:38:37;;;;;;;5.53;1.67;;;588.90;1100.80;;;;;;5093727;28;20056;-76
2021/08/18 08:41:05;;;;;;;4.10;1.60;;;588.90;1100.80;;;;;;5093942;28;20182;-76
2021/08/18 08:43:31;;;;;;;2.53;1.50;;;588.90;1100.80;;;;;;5093677;28;20358;-74
2021/08/18 08:45:57;;;;;;;5.07;1.80;;;588.80;1100.80;;;;;;5093548;28;20028;-74
2021/08/18 08:48:24;;;;;;;2.90;1.60;;;588.90;1126.40;;;;;;5093599;28;20026;-74
2021/08/18 08:50:51;;;;;;;2.92;1.80;;;589.00;1126.40;;;;;;5093632;28;20020;-74
2021/08/18 08:53:17;;;;;;;4.13;1.80;;;588.80;1100.80;;;;;;5093535;28;20048;-75
2021/08/18 08:55:44;;;;;;;4.00;1.52;;;588.90;1100.80;;;;;;5093541;28;20042;-74
2021/08/18 08:58:10;;;;;;;6.95;2.13;;;588.90;1100.80;;;;;;5093476;28;20070;-76
2021/08/18 09:00:36;;;;;;;24.08;3.20;;;589.00;1100.80;;;;;;5093468;28;20024;-76
2021/08/18 09:03:11;;;;;;;8.38;2.20;;;588.80;1126.40;;;;;;5092201;28;20385;-75
2021/08/18 09:05:38;;;;;;;6.28;1.67;;;588.80;1100.80;;;;;;5093373;28;20036;-77
2021/08/18 09:08:09;;;;;;;4.75;2.05;;;588.80;1100.80;;;;;;5093372;28;20024;-75
2021/08/18 09:10:35;;;;;;;3.88;1.65;;;588.80;1100.80;;;;;;5092112;28;20066;-76
2021/08/18 09:13:12;;;;;;;3.67;1.80;;;588.80;1100.80;;;;;;5093192;28;20071;-76
2021/08/18 09:15:38;;;;;;;3.08;2.05;;;564.10;1126.40;;;;;;5093603;28;20499;-76
2021/08/18 09:18:04;;;;;;;3.83;1.77;;;588.80;1126.40;;;;;;5093358;28;20024;-77
2021/08/18 09:20:31;;;;;;;3.75;1.60;;;588.80;1126.40;;;;;;5093404;28;20429;-77
2021/08/18 09:23:00;;;;;;;5.82;2.08;;;588.80;1100.80;;;;;;5091970;28;20023;-77
2021/08/18 09:25:28;;;;;;;8.52;2.00;;;588.80;1126.40;;;;;;5093205;28;20031;-76
2021/08/18 09:27:59;;;;;;;3.03;1.75;;;588.80;1126.40;;;;;;5093151;28;20020;-76
2021/08/18 09:30:38;;;;;;;3.47;1.90;;;588.80;1126.40;;;;;;5092023;28;20119;-75
2021/08/18 09:33:22;;;;;;;4.82;1.60;;;588.80;1126.40;;;;;;5093504;28;20032;-76
2021/08/18 09:35:56;;;;;;;4.85;1.73;;;588.80;1126.40;;;;;;5093171;28;20024;-77
2021/08/18 09:38:25;;;;;;;5.03;2.15;;;588.80;1126.40;;;;;;5093143;28;20024;-75
2021/08/18 09:40:54;;;;;;;5.28;1.70;;;588.80;1126.40;;;;;;5094786;28;20472;-77
2021/08/18 09:43:25;;;;;;;3.42;1.80;;;588.80;1126.40;;;;;;5096953;28;20065;-76
2021/08/18 09:46:02;;;;;;;8.25;2.30;;;588.80;1126.40;;;;;;5095696;28;20189;-75
2021/08/18 09:48:33;;;;;;;8.57;2.33;;;588.80;1126.40;;;;;;5096815;28;20099;-78
2021/08/18 09:51:03;;;;;;;4.28;1.90;;;564.10;1126.40;;;;;;5096782;28;20016;-77
2021/08/18 09:53:36;;;;;;;5.28;1.70;;;564.10;1126.40;;;;;;5096699;28;20099;-76
2021/08/18 09:56:08;;;;;;;;;;;564.10;1126.40;;;;;;5095897;28;20107;-76
2021/08/18 09:58:40;;;;;;;3.90;1.80;;;564.10;1126.40;;;;;;5095417;28;19905;-75
2021/08/18 10:01:11;;;;;;;5.30;1.88;;;564.10;1100.80;;;;;;5095340;28;20020;-74
2021/08/18 10:03:47;;;;;;;3.42;1.90;;;564.10;1100.80;;;;;;5096504;28;20064;-76
2021/08/18 10:06:14;;;;;;;4.75;2.10;;;588.80;1100.80;;;;;;5096472;28;20036;-75
2021/08/18 10:08:42;;;;;;;5.28;1.75;;;588.90;1100.80;;;;;;5096329;28;20389;-75
2021/08/18 10:11:15;;;;;;;2.35;1.63;;;588.90;1100.80;;;;;;5096376;28;20067;-76
2021/08/18 10:13:41;;;;;;;8.07;2.08;;;589.10;1100.80;;;;;;5096258;28;20033;-75
2021/08/18 10:16:08;;;;;;;4.90;1.75;;;589.10;1075.20;;;;;;5096318;28;20027;-75
2021/08/18 10:18:34;;;;;;;8.70;2.03;;;589.10;1049.60;;;;;;5096573;28;20073;-76
2021/08/18 10:21:15;;;;;;;3.72;2.55;;;589.10;1075.20;;;;;;5096216;28;20399;-75
2021/08/18 10:23:47;;;;;;;5.22;2.58;;;589.20;1049.60;;;;;;5094975;28;20028;-77
2021/08/18 10:26:36;;;;;;;5.90;3.08;;;589.30;1075.20;;;;;;5096032;28;20059;-76
2021/08/18 10:29:09;;;;;;;5.55;1.88;;;589.40;1075.20;;;;;;5086634;28;20545;-75
2021/08/18 10:31:44;;;;;;;3.55;1.60;;;589.30;1024.00;;;;;;5096048;28;20353;-75
2021/08/18 10:34:36;;;;;;;10.07;2.00;;;589.30;1024.00;;;;;;5095942;28;20027;-73
2021/08/18 10:37:05;;;;;;;3.10;1.60;;;589.30;998.40;;;;;;5095875;28;20401;-76
2021/08/18 10:39:39;;;;;;;4.63;1.90;;;589.40;1024.00;;;;;;5095885;28;20103;-75
2021/08/18 10:42:10;;;;;;;5.63;1.83;;;589.40;1024.00;;;;;;5095777;28;20016;-75
2021/08/18 10:44:48;;;;;;;4.28;1.55;;;589.50;998.40;;;;;;5095828;28;20027;-75
2021/08/18 10:47:25;;;;;;;3.33;2.03;;;589.50;998.40;;;;;;5095942;28;20042;-76
2021/08/18 10:50:18;;;;;;;5.05;1.83;;;589.60;947.20;;;;;;5095741;28;20368;-74
2021/08/18 10:52:44;;;;;;;3.90;2.13;;;589.60;972.80;;;;;;5084080;28;20115;-74
2021/08/18 10:55:27;;;;;;;4.50;2.40;;;589.60;972.80;;;;;;5094303;28;20108;-73
2021/08/18 10:58:29;;;;;;;6.88;1.90;;;589.60;998.40;;;;;;5094444;28;20028;-73
2021/08/18 11:00:55;;;;;;;9.32;4.32;;;614.40;1024.00;;;;;;5094255;28;20016;-74
2021/08/18 11:03:22;;;;;;;4.65;2.67;;;614.40;1024.00;;;;;;5095503;28;20035;-74
2021/08/18 11:05:53;;;;;;;13.25;2.50;;;614.50;998.40;;;;;;5095278;28;20503;-76
2021/08/18 11:08:40;;;;;;;7.82;2.30;;;614.40;998.40;;;;;;5095277;28;20097;-73
2021/08/18 11:11:09;;;;;;;4.70;2.17;;;614.50;998.40;;;;;;5094093;28;20034;-75
2021/08/18 11:14:08;;;;;;;6.10;2.03;;;614.40;998.40;;;;;;5095038;28;20051;-74
2021/08/18 11:16:34;;;;;;;4.35;2.15;;;614.50;972.80;;;;;;5095175;28;20105;-76
2021/08/18 11:19:02;;;;;;;4.45;2.13;;;614.50;947.20;;;;;;5093813;28;20054;-75
2021/08/18 11:21:33;;;;;;;14.38;2.78;;;614.50;947.20;;;;;;5095004;28;20012;-74
2021/08/18 11:24:11;;;;;;;19.40;2.97;;;614.50;921.60;;;;;;5094999;28;20027;-76
2021/08/18 11:26:42;;;;;;;10.60;2.10;;;614.60;947.20;;;;;;5094868;28;20388;-74
2021/08/18 11:29:10;;;;;;;9.05;2.30;;;614.60;947.20;;;;;;5093659;28;20035;-75
2021/08/18 11:31:41;;;;;;;6.20;2.63;;;614.60;947.20;;;;;;5094813;28;20465;-76
2021/08/18 11:34:37;;;;;;;5.63;2.05;;;614.70;972.80;;;;;;5094827;28;20032;-75
2021/08/18 11:37:08;;;;;;;5.60;2.30;;;614.80;998.40;;;;;;5081810;28;20035;-75
2021/08/18 11:39:36;;;;;;;4.72;2.22;;;614.80;972.80;;;;;;5094711;28;20103;-75
2021/08/18 11:42:28;;;;;;;6.13;2.10;;;614.80;998.40;;;;;;5094639;28;20020;-75
2021/08/18 11:45:14;;;;;;;4.82;2.00;;;614.80;998.40;;;;;;5091627;28;20059;-77
2021/08/18 11:47:41;;;;;;;4.13;2.03;;;614.90;998.40;;;;;;5094616;28;20056;-75
2021/08/18 11:50:13;;;;;;;9.02;2.30;;;614.90;998.40;;;;;;5094465;28;20024;-77
2021/08/18 11:52:39;;;;;;;6.93;2.25;;;614.90;1024.00;;;;;;5094532;28;20035;-75
2021/08/18 11:55:06;;;;;;;6.22;2.00;;;614.90;998.40;;;;;;5093145;28;20024;-75
2021/08/18 11:57:32;;;;;;;4.63;2.10;;;614.90;1024.00;;;;;;5094294;28;20530;-74
2021/08/18 12:00:00;;;;;;;3.40;1.90;;;615.10;1024.00;;;;;;5094607;28;20103;-74
2021/08/18 12:02:30;;;;;;;8.10;2.00;;;615.10;1049.60;;;;;;5094228;28;20031;-76
2021/08/18 12:05:01;;;;;;;3.85;1.92;;;615.10;1024.00;;;;;;5092852;28;20024;-75
2021/08/18 12:07:29;;;;;;;8.18;2.17;;;615.10;998.40;;;;;;5094279;28;20070;-75
2021/08/18 12:10:14;;;;;;;7.82;2.00;;;615.20;972.80;;;;;;5094182;28;20030;-74
2021/08/18 12:12:40;;;;;;;5.20;2.20;;;615.20;998.40;;;;;;5093899;28;20505;-74
2021/08/18 12:15:11;;;;;;;7.25;1.98;;;640.00;972.80;;;;;;5094391;28;20039;-75
2021/08/18 12:17:39;;;;;;;4.57;2.00;;;615.20;972.80;;;;;;5093894;28;20567;-75
2021/08/18 12:20:27;;;;;;;4.60;1.83;;;615.30;972.80;;;;;;5094013;28;20031;-75
2021/08/18 12:22:53;;;;;;;10.48;2.05;;;615.30;947.20;;;;;;5093986;28;20031;-75